1987 LIDIA (1987242N13257)


On this page: IBTrACS data - Map and Plots - Positions - Intensities - Original source data

Summary

Start Aug 29
End Sep 3
Basin EP
LMI 75 kt
Sources hurdat_epa
jtwc_ep
td9636
atcf
In WMO? Yes
Previous storm 1987 KNUT (EP)
Previous in basin 1987 KNUT (EP)
Concurrent storms 1987 DINAH (WP)
1987 OKA (EP)
1987 KNUT (EP)
1987 LIDIA (EP)
1987 MISSING (NA)
1987 HOLLY (WP)
1987 GERALD (WP)
1987 MISSING (WP)
Next in basin Missing
Next storm 1987 MISSING (NA)

top of page IBTrACS Data: File Access

top of page HURSAT Data: File Access

Image of storm

top of page Plots:

Map of storm track will not appear if FTP is down
Time series of cyclone Maximum Sustained Wind will not appear if FTP is down
Time series of cyclone Minimum Central Pressure will not appear if FTP is down

top of page Track Data:Position

hurdat_epa jtwc_ep td9636 atcf
Date Lat Lon Lat Lon Lat Lon Lat Lon
1987-08-29 12:00:00 12.5 -102.6 12.5 -102.6 12.5 -102.6 12.5 -102.6
1987-08-29 18:00:00 12.9 -103.7 12.9 -103.7 13.0 -103.6 12.9 -103.7
1987-08-30 00:00:00 13.5 -104.6 13.5 -104.6 13.5 -104.6 13.5 -104.6
1987-08-30 06:00:00 14.0 -105.7 14.0 -105.7 14.0 -105.7 14.0 -105.7
1987-08-30 12:00:00 14.6 -106.8 14.6 -106.8 14.6 -106.8 14.6 -106.8
1987-08-30 18:00:00 15.3 -107.8 15.3 -107.8 15.3 -107.9 15.3 -107.8
1987-08-31 00:00:00 16.0 -109.0 16.0 -109.0 16.0 -109.0 16.0 -109.0
1987-08-31 06:00:00 16.4 -110.2 16.4 -110.2 16.3 -110.1 16.4 -110.2
1987-08-31 12:00:00 16.5 -111.1 16.5 -111.1 16.5 -111.1 16.5 -111.1
1987-08-31 18:00:00 16.6 -111.9 16.6 -111.9 16.6 -111.9 16.6 -111.9
1987-09-01 00:00:00 16.7 -112.6 16.7 -112.6 16.7 -112.6 16.7 -112.6
1987-09-01 06:00:00 16.9 -113.5 16.9 -113.5 16.9 -113.5 16.9 -113.5
1987-09-01 12:00:00 17.4 -114.3 17.4 -114.3 17.4 -114.3 17.4 -114.3
1987-09-01 18:00:00 17.8 -115.0 17.8 -115.0 17.8 -115.1 17.8 -115.0
1987-09-02 00:00:00 18.2 -115.8 18.2 -115.8 18.2 -115.8 18.2 -115.8
1987-09-02 06:00:00 18.5 -116.4 18.5 -116.4 18.5 -116.6 18.5 -116.4
1987-09-02 12:00:00 18.8 -117.2 18.8 -117.2 18.8 -117.2 18.8 -117.2
1987-09-02 18:00:00 19.2 -117.4 19.2 -117.4 19.2 -117.5 19.2 -117.4
1987-09-03 00:00:00 19.6 -117.7 19.6 -117.7 19.6 -117.7 19.6 -117.7
1987-09-03 06:00:00 20.0 -118.1 20.0 -118.1 20.0 -118.0 20.0 -118.1
1987-09-03 12:00:00 20.4 -118.4 20.4 -118.4 20.4 -118.4 20.4 -118.4

top of pageTrack Data:Intensity

hurdat_epa jtwc_ep td9636 atcf
Date Wind Pres Wind Pres Wind Pres Wind Pres
1987-08-29 12:00:00 25. 25. 25. 25.
1987-08-29 18:00:00 30. 30. 25. 30.
1987-08-30 00:00:00 35. 35. 35. 35.
1987-08-30 06:00:00 40. 40. 35. 40.
1987-08-30 12:00:00 45. 45. 45. 45.
1987-08-30 18:00:00 45. 45. 45. 45.
1987-08-31 00:00:00 45. 45. 45. 45.
1987-08-31 06:00:00 55. 55. 45. 55.
1987-08-31 12:00:00 55. 55. 55. 55.
1987-08-31 18:00:00 55. 55. 55. 55.
1987-09-01 00:00:00 60. 60. 60. 60.
1987-09-01 06:00:00 70. 70. 70. 70.
1987-09-01 12:00:00 75. 75. 75. 75.
1987-09-01 18:00:00 75. 75. 75. 75.
1987-09-02 00:00:00 65. 65. 65. 65.
1987-09-02 06:00:00 60. 60. 65. 60.
1987-09-02 12:00:00 50. 50. 50. 50.
1987-09-02 18:00:00 45. 45. 50. 45.
1987-09-03 00:00:00 35. 35. 35. 35.
1987-09-03 06:00:00 25. 25. 35. 25.
1987-09-03 12:00:00 25. 25. 25. 25.

top of page Links to source data

Source Source file Format
hurdat_epa tracks1949to2011_epa.html:507:LIDIA HURDAT
jtwc_ep bep121987.txt ATCF
td9636 cons_worldwide_trop_cyclone_18710101-19891231-002:Line=6251 TD 9636
atcf bep121987.dat ATCF